Time;durP1;ratioP1;P1;durP2;ratioP2;P2;SDS_P1;SDS_P2;PMS_P1;PMS_P2;Temp;Humidity;BMP_temperature;BMP_pressure;BME280_temperature;BME280_humidity;BME280_pressure;Samples;Min_cycle;Max_cycle;Signal;HPM_P1;HPM_P2
2022/03/30 00:02:17;;;;;;;13.45;3.90;;;7.10;99.90;;;;;;20828322;28;20041;-80
2022/03/30 00:12:18;;;;;;;14.50;3.60;;;7.00;99.90;;;;;;20799716;28;20051;-80
2022/03/30 00:22:19;;;;;;;12.00;4.35;;;6.80;99.90;;;;;;20804004;28;20592;-79
2022/03/30 00:32:20;;;;;;;8.77;2.75;;;6.60;99.90;;;;;;20825481;28;20034;-80
2022/03/30 00:42:22;;;;;;;12.77;3.47;;;6.40;99.90;;;;;;20824828;28;20101;-80
2022/03/30 00:52:24;;;;;;;17.30;2.75;;;6.40;99.90;;;;;;20842248;28;20485;-80
2022/03/30 01:02:26;;;;;;;10.40;3.75;;;6.30;99.90;;;;;;20803272;28;20045;-80
2022/03/30 01:12:29;;;;;;;8.95;3.53;;;6.20;99.90;;;;;;20812241;28;20045;-80
2022/03/30 01:22:30;;;;;;;11.90;3.75;;;6.30;99.90;;;;;;20806052;28;20044;-80
2022/03/30 01:32:31;;;;;;;9.77;3.20;;;6.30;99.90;;;;;;20811744;28;20061;-80
2022/03/30 01:42:32;;;;;;;11.45;3.83;;;6.20;99.90;;;;;;20823371;28;20053;-80
2022/03/30 01:52:33;;;;;;;15.60;3.70;;;6.10;99.90;;;;;;20821813;28;20045;-80
2022/03/30 02:02:34;;;;;;;13.23;3.25;;;5.90;99.90;;;;;;20805593;28;20052;-80
2022/03/30 02:12:37;;;;;;;12.45;3.25;;;5.80;99.90;;;;;;20830922;28;20054;-80
2022/03/30 02:22:40;;;;;;;9.95;3.55;;;5.80;99.90;;;;;;20821429;28;20133;-79
2022/03/30 02:32:44;;;;;;;12.13;4.18;;;5.80;99.90;;;;;;20820154;28;20055;-80
2022/03/30 02:42:45;;;;;;;12.43;3.58;;;5.70;99.90;;;;;;20842411;28;20615;-80
2022/03/30 02:52:46;;;;;;;15.55;4.25;;;5.70;99.90;;;;;;20806578;28;20052;-80
2022/03/30 03:02:47;;;;;;;8.07;3.42;;;5.60;99.90;;;;;;20809448;28;20045;-80
2022/03/30 03:12:48;;;;;;;15.27;3.65;;;5.40;99.90;;;;;;20811797;28;20132;-80
2022/03/30 03:22:50;;;;;;;15.30;3.55;;;5.50;99.90;;;;;;20819418;28;20058;-80
2022/03/30 03:32:51;;;;;;;8.65;2.55;;;5.60;99.90;;;;;;20834183;28;20037;-80
2022/03/30 03:42:53;;;;;;;9.18;3.40;;;5.60;99.90;;;;;;20817100;28;20456;-80
2022/03/30 03:52:55;;;;;;;11.43;3.08;;;5.50;99.90;;;;;;20815750;28;20041;-79
2022/03/30 04:02:56;;;;;;;19.70;4.25;;;5.50;99.90;;;;;;20833375;28;20062;-80
2022/03/30 04:12:57;;;;;;;29.65;4.47;;;5.40;99.90;;;;;;20830777;28;20100;-80
2022/03/30 04:22:59;;;;;;;11.60;3.95;;;5.30;99.90;;;;;;20808086;28;20045;-80
2022/03/30 04:33:00;;;;;;;15.30;3.40;;;5.20;99.90;;;;;;20855584;28;20045;-79
2022/03/30 04:43:02;;;;;;;8.55;3.00;;;5.10;99.90;;;;;;20822931;28;20085;-80
2022/03/30 04:53:03;;;;;;;13.18;4.28;;;4.80;99.90;;;;;;20855120;28;20121;-80
2022/03/30 05:03:04;;;;;;;9.77;3.92;;;4.80;99.90;;;;;;20840308;28;20053;-80
2022/03/30 05:13:05;;;;;;;10.25;3.90;;;4.60;99.90;;;;;;20819585;28;20060;-80
2022/03/30 05:23:09;;;;;;;11.52;3.15;;;4.50;99.90;;;;;;20836208;28;20059;-80
2022/03/30 05:33:10;;;;;;;8.15;3.20;;;4.40;99.90;;;;;;20823741;28;20133;-80
2022/03/30 05:43:12;;;;;;;14.90;4.78;;;4.30;99.90;;;;;;20830443;28;20049;-79
2022/03/30 05:53:17;;;;;;;11.18;3.65;;;4.40;99.90;;;;;;20825826;28;20120;-80
2022/03/30 06:03:18;;;;;;;8.65;3.63;;;4.30;99.90;;;;;;20799701;28;20033;-80
2022/03/30 06:13:19;;;;;;;13.75;4.97;;;4.40;99.90;;;;;;20814977;28;20049;-80
2022/03/30 06:23:20;;;;;;;10.38;4.30;;;4.50;99.90;;;;;;20788987;28;20037;-80
2022/03/30 06:33:22;;;;;;;13.48;4.53;;;4.70;99.90;;;;;;20797768;28;20051;-80
2022/03/30 06:43:23;;;;;;;11.02;3.88;;;4.90;99.90;;;;;;20824335;28;20052;-80
2022/03/30 06:53:24;;;;;;;14.15;3.97;;;5.10;99.90;;;;;;20823614;28;20050;-80
2022/03/30 07:03:27;;;;;;;12.90;4.10;;;5.50;99.90;;;;;;20828436;28;20038;-80
2022/03/30 07:13:28;;;;;;;11.20;3.17;;;5.80;99.90;;;;;;20824886;28;20037;-80
2022/03/30 07:23:29;;;;;;;15.68;4.38;;;6.20;99.90;;;;;;20819892;28;20048;-81
2022/03/30 07:33:33;;;;;;;14.57;4.07;;;6.40;99.90;;;;;;20824134;28;20243;-80
2022/03/30 07:43:34;;;;;;;14.88;3.53;;;6.60;99.90;;;;;;20797376;28;20038;-80
2022/03/30 07:53:35;;;;;;;11.93;3.95;;;6.90;99.90;;;;;;20804388;28;20052;-80
2022/03/30 08:03:36;;;;;;;8.13;3.05;;;7.30;99.90;;;;;;20826009;28;20550;-80
2022/03/30 08:13:38;;;;;;;6.53;3.00;;;7.50;99.90;;;;;;20809608;28;20037;-80
2022/03/30 08:23:39;;;;;;;9.43;3.35;;;7.60;99.90;;;;;;20804226;28;20037;-80
2022/03/30 08:33:40;;;;;;;7.10;3.15;;;7.80;99.90;;;;;;20795133;28;20049;-80
2022/03/30 08:43:41;;;;;;;14.38;3.20;;;8.40;99.90;;;;;;20803340;28;20053;-80
2022/03/30 08:53:43;;;;;;;6.38;2.25;;;8.80;99.90;;;;;;20789169;28;20220;-80
2022/03/30 09:03:58;;;;;;;8.38;2.55;;;9.20;99.90;;;;;;20828985;28;20036;-80
2022/03/30 09:14:04;;;;;;;6.85;2.78;;;9.40;99.90;;;;;;20798718;28;20072;-80
2022/03/30 09:24:05;;;;;;;6.82;2.42;;;9.30;99.90;;;;;;20814181;28;20041;-80
2022/03/30 09:34:09;;;;;;;5.95;2.47;;;9.70;99.90;;;;;;20814122;28;21202;-80
2022/03/30 09:44:10;;;;;;;6.47;1.98;;;9.90;99.90;;;;;;20812565;28;20385;-80
2022/03/30 09:54:11;;;;;;;8.57;3.03;;;9.80;99.90;;;;;;20806610;28;20567;-80
2022/03/30 10:04:13;;;;;;;4.63;2.20;;;9.90;99.90;;;;;;20802022;28;20048;-80
2022/03/30 10:14:14;;;;;;;6.18;1.83;;;10.00;99.90;;;;;;20810876;28;20594;-82
2022/03/30 10:24:37;;;;;;;4.55;2.00;;;10.20;99.90;;;;;;20823527;28;20049;-81
2022/03/30 10:34:57;;;;;;;3.17;0.90;;;10.50;99.90;;;;;;20829496;28;20051;-80
2022/03/30 10:45:01;;;;;;;1.95;0.47;;;10.80;99.90;;;;;;20792556;28;20122;-79
2022/03/30 10:55:14;;;;;;;3.55;1.25;;;11.00;99.90;;;;;;20810467;28;20041;-80
2022/03/30 11:05:24;;;;;;;1.92;0.80;;;11.20;99.90;;;;;;20865312;28;20045;-79
2022/03/30 11:15:26;;;;;;;1.65;0.70;;;11.30;99.90;;;;;;20820465;28;20042;-79
2022/03/30 11:25:28;;;;;;;1.67;0.68;;;11.70;99.90;;;;;;20795534;28;20044;-79
2022/03/30 11:35:36;;;;;;;1.70;0.68;;;11.80;99.90;;;;;;20801088;28;20044;-80
2022/03/30 11:45:37;;;;;;;;;;;11.90;99.90;;;;;;20815692;28;20390;-79
2022/03/30 11:56:16;;;;;;;2.03;0.65;;;12.00;99.90;;;;;;20808003;28;19920;-79
2022/03/30 12:06:18;;;;;;;2.08;1.15;;;12.50;99.90;;;;;;20795241;28;20053;-79
2022/03/30 12:16:21;;;;;;;1.30;0.50;;;12.30;99.90;;;;;;20808455;28;20040;-79
2022/03/30 12:26:26;;;;;;;1.48;0.55;;;12.60;99.90;;;;;;20786718;28;20053;-79
2022/03/30 12:36:27;;;;;;;2.95;0.50;;;12.30;99.90;;;;;;20801728;28;20049;-79
2022/03/30 12:46:30;;;;;;;1.05;0.35;;;12.60;99.90;;;;;;20791433;28;20057;-80
2022/03/30 12:56:31;;;;;;;4.50;1.48;;;12.30;99.90;;;;;;20810886;28;20045;-80
2022/03/30 13:06:32;;;;;;;1.33;0.30;;;12.40;99.90;;;;;;20795150;28;20052;-80
2022/03/30 13:16:33;;;;;;;1.73;0.43;;;12.80;99.90;;;;;;20787614;28;20045;-79
2022/03/30 13:26:39;;;;;;;1.17;0.40;;;12.60;99.90;;;;;;20802609;28;20468;-80
2022/03/30 13:36:42;;;;;;;2.03;0.60;;;12.40;99.90;;;;;;20776154;28;20618;-79
2022/03/30 13:46:44;;;;;;;1.38;0.60;;;12.40;99.90;;;;;;20786559;28;20140;-79
2022/03/30 13:56:45;;;;;;;1.30;0.40;;;12.70;99.90;;;;;;20819451;28;20489;-79
2022/03/30 14:06:46;;;;;;;1.98;0.70;;;12.70;99.90;;;;;;20800428;28;20545;-79
2022/03/30 14:16:48;;;;;;;4.93;0.60;;;12.60;99.90;;;;;;20783621;28;20413;-78
2022/03/30 14:26:49;;;;;;;1.05;0.40;;;12.30;99.90;;;;;;20810553;28;20044;-78
2022/03/30 14:36:50;;;;;;;4.93;0.75;;;11.80;99.90;;;;;;20796750;28;20147;-78
2022/03/30 14:46:51;;;;;;;2.33;0.80;;;11.60;99.90;;;;;;20789186;28;20083;-79
2022/03/30 14:56:52;;;;;;;1.80;0.65;;;11.70;99.90;;;;;;20781351;28;20048;-78
2022/03/30 15:06:54;;;;;;;3.33;0.50;;;11.40;99.90;;;;;;20814569;28;20409;-78
2022/03/30 15:16:55;;;;;;;2.85;0.73;;;11.30;99.90;;;;;;20810867;28;20048;-78
2022/03/30 15:26:57;;;;;;;5.45;1.67;;;11.10;99.90;;;;;;20804937;28;20083;-80
2022/03/30 15:36:59;;;;;;;0.93;0.38;;;10.70;99.90;;;;;;20790533;28;20531;-79
2022/03/30 15:47:00;;;;;;;1.20;0.40;;;10.50;99.90;;;;;;20779944;28;20405;-78
2022/03/30 15:57:01;;;;;;;0.70;0.30;;;10.50;99.90;;;;;;20780298;28;20041;-78
2022/03/30 16:07:04;;;;;;;1.35;0.55;;;10.30;99.90;;;;;;20804651;28;20038;-81
2022/03/30 16:17:05;;;;;;;0.98;0.43;;;10.30;99.90;;;;;;20802291;28;20049;-78
2022/03/30 16:27:09;;;;;;;3.72;0.70;;;10.30;99.90;;;;;;20801280;28;20049;-78
2022/03/30 16:37:10;;;;;;;1.88;0.50;;;10.20;99.90;;;;;;20807772;28;20334;-79
2022/03/30 16:47:11;;;;;;;2.03;1.02;;;10.10;99.90;;;;;;20816665;28;20056;-79
2022/03/30 16:57:12;;;;;;;1.60;0.57;;;10.20;99.90;;;;;;20777413;28;20049;-78
2022/03/30 17:07:14;;;;;;;0.95;0.20;;;10.30;99.90;;;;;;20790715;28;20640;-77
2022/03/30 17:17:17;;;;;;;1.52;0.60;;;10.00;99.90;;;;;;20773662;28;20037;-78
2022/03/30 17:27:20;;;;;;;1.80;0.75;;;9.90;99.90;;;;;;20800269;28;20049;-79
2022/03/30 17:37:21;;;;;;;1.90;0.73;;;9.70;99.90;;;;;;20796771;28;20042;-78
2022/03/30 17:47:23;;;;;;;1.45;0.57;;;9.60;99.90;;;;;;20803539;28;20047;-78
2022/03/30 17:57:24;;;;;;;2.85;0.55;;;9.70;99.90;;;;;;20789277;28;20041;-79
2022/03/30 18:07:25;;;;;;;2.05;1.02;;;9.60;99.90;;;;;;20783439;28;20052;-79
2022/03/30 18:17:27;;;;;;;1.77;0.88;;;9.40;99.90;;;;;;20768827;28;20040;-79
2022/03/30 18:27:28;;;;;;;2.88;0.90;;;9.30;99.90;;;;;;20807481;28;20050;-79
2022/03/30 18:37:29;;;;;;;3.50;0.70;;;9.20;99.90;;;;;;20813947;28;20045;-82
2022/03/30 18:47:30;;;;;;;1.95;0.70;;;9.20;99.90;;;;;;20807830;28;20050;-79
2022/03/30 18:57:32;;;;;;;2.10;1.27;;;9.10;99.90;;;;;;20810714;28;20040;-79
2022/03/30 19:07:34;;;;;;;2.13;0.65;;;9.10;99.90;;;;;;20840609;28;20132;-79
2022/03/30 19:17:35;;;;;;;1.15;0.50;;;8.90;99.90;;;;;;20801707;28;20025;-80
2022/03/30 19:27:37;;;;;;;2.22;0.63;;;8.90;99.90;;;;;;20827159;28;20041;-80
2022/03/30 19:37:39;;;;;;;2.15;0.95;;;8.80;99.90;;;;;;20825382;28;20053;-80
2022/03/30 19:47:43;;;;;;;2.90;0.80;;;8.80;99.90;;;;;;20797929;28;20083;-80
2022/03/30 19:57:44;;;;;;;1.30;0.70;;;8.60;99.90;;;;;;20814343;28;20157;-79
2022/03/30 20:07:45;;;;;;;1.40;0.60;;;8.40;99.90;;;;;;20809912;28;20051;-80
2022/03/30 20:17:50;;;;;;;1.45;0.70;;;7.90;99.90;;;;;;20821351;28;20041;-80
2022/03/30 20:27:53;;;;;;;2.05;0.77;;;7.40;99.90;;;;;;20800833;28;20068;-78
2022/03/30 20:37:54;;;;;;;1.55;0.63;;;7.20;99.90;;;;;;20800405;28;20033;-79
2022/03/30 20:47:57;;;;;;;2.38;0.63;;;6.90;99.90;;;;;;20797043;28;20048;-79
2022/03/30 20:57:58;;;;;;;4.53;0.90;;;6.80;99.90;;;;;;20819231;28;20041;-79
2022/03/30 21:08:00;;;;;;;2.08;0.88;;;6.60;99.90;;;;;;20806220;28;20140;-79
2022/03/30 21:18:09;;;;;;;1.48;0.60;;;6.40;99.90;;;;;;20805775;28;20041;-79
2022/03/30 21:28:11;;;;;;;1.80;0.38;;;6.40;99.90;;;;;;20805552;28;20037;-79
2022/03/30 21:38:12;;;;;;;2.30;0.98;;;6.30;99.90;;;;;;20795647;28;20045;-79
2022/03/30 21:48:15;;;;;;;5.07;0.65;;;6.20;99.90;;;;;;20791300;28;20048;-79
2022/03/30 21:58:16;;;;;;;1.50;0.73;;;6.10;99.90;;;;;;20776960;28;20033;-79
2022/03/30 22:08:17;;;;;;;3.10;0.70;;;6.10;99.90;;;;;;20787632;28;20222;-79
2022/03/30 22:18:19;;;;;;;3.97;0.70;;;6.00;99.90;;;;;;20786151;28;20038;-79
2022/03/30 22:28:20;;;;;;;1.60;0.60;;;6.00;99.90;;;;;;20757127;28;20045;-79
2022/03/30 22:38:26;;;;;;;2.03;0.52;;;5.90;99.90;;;;;;20799577;28;20038;-79
2022/03/30 22:48:28;;;;;;;2.27;0.57;;;5.80;99.90;;;;;;20786559;28;20050;-79
2022/03/30 22:58:34;;;;;;;1.60;0.77;;;5.60;99.90;;;;;;20779199;28;20034;-79
2022/03/30 23:08:35;;;;;;;1.90;0.60;;;5.50;99.90;;;;;;20785796;28;20509;-79
2022/03/30 23:18:37;;;;;;;0.60;0.30;;;5.30;99.90;;;;;;20766227;28;20037;-80
2022/03/30 23:28:38;;;;;;;0.90;0.50;;;5.00;99.90;;;;;;20797258;28;20049;-79
2022/03/30 23:38:40;;;;;;;1.65;0.63;;;4.80;99.90;;;;;;20795343;28;20440;-80
2022/03/30 23:48:42;;;;;;;0.65;0.25;;;4.50;99.90;;;;;;20803140;28;20072;-79
2022/03/30 23:58:44;;;;;;;1.40;0.43;;;4.40;99.90;;;;;;20806666;28;20052;-80
